sensor_id;sensor_type;location;lat;lon;timestamp;temperature;humidity
18898;DHT22;9581;49.484;8.556;2022-12-18T00:02:11;-4.60;99.90
18898;DHT22;9581;49.484;8.556;2022-12-18T00:04:38;-4.50;99.90
18898;DHT22;9581;49.484;8.556;2022-12-18T00:07:05;-4.40;99.90
18898;DHT22;9581;49.484;8.556;2022-12-18T00:09:33;-4.30;99.90
18898;DHT22;9581;49.484;8.556;2022-12-18T00:12:00;-4.30;99.90
18898;DHT22;9581;49.484;8.556;2022-12-18T00:14:26;-4.50;99.90
18898;DHT22;9581;49.484;8.556;2022-12-18T00:16:53;-4.30;99.90
18898;DHT22;9581;49.484;8.556;2022-12-18T00:19:20;-4.30;99.90
18898;DHT22;9581;49.484;8.556;2022-12-18T00:21:47;-4.30;99.90
18898;DHT22;9581;49.484;8.556;2022-12-18T00:24:13;-4.30;99.90
18898;DHT22;9581;49.484;8.556;2022-12-18T00:26:42;-4.30;99.90
18898;DHT22;9581;49.484;8.556;2022-12-18T00:29:11;-4.50;99.90
18898;DHT22;9581;49.484;8.556;2022-12-18T00:31:40;-4.40;99.90
18898;DHT22;9581;49.484;8.556;2022-12-18T00:34:09;-4.80;99.90
18898;DHT22;9581;49.484;8.556;2022-12-18T00:36:36;-4.60;99.90
18898;DHT22;9581;49.484;8.556;2022-12-18T00:39:04;-4.80;99.90
18898;DHT22;9581;49.484;8.556;2022-12-18T00:41:31;-4.70;99.90
18898;DHT22;9581;49.484;8.556;2022-12-18T00:44:18;-4.40;99.90
18898;DHT22;9581;49.484;8.556;2022-12-18T00:46:46;-4.30;99.90
18898;DHT22;9581;49.484;8.556;2022-12-18T00:49:15;-4.40;99.90
18898;DHT22;9581;49.484;8.556;2022-12-18T00:51:43;-4.60;99.90
18898;DHT22;9581;49.484;8.556;2022-12-18T00:54:10;-4.50;99.90
18898;DHT22;9581;49.484;8.556;2022-12-18T00:56:37;-4.40;99.90
18898;DHT22;9581;49.484;8.556;2022-12-18T00:59:04;-4.60;99.90
18898;DHT22;9581;49.484;8.556;2022-12-18T01:01:32;-4.50;99.90
18898;DHT22;9581;49.484;8.556;2022-12-18T01:04:00;-4.60;99.90
18898;DHT22;9581;49.484;8.556;2022-12-18T01:06:27;-4.60;99.90
18898;DHT22;9581;49.484;8.556;2022-12-18T01:08:54;-4.50;99.90
18898;DHT22;9581;49.484;8.556;2022-12-18T01:11:21;-4.60;99.90
18898;DHT22;9581;49.484;8.556;2022-12-18T01:13:48;-4.50;99.90
18898;DHT22;9581;49.484;8.556;2022-12-18T01:16:16;-4.60;99.90
18898;DHT22;9581;49.484;8.556;2022-12-18T01:18:45;-4.70;99.90
18898;DHT22;9581;49.484;8.556;2022-12-18T01:21:16;-4.70;99.90
18898;DHT22;9581;49.484;8.556;2022-12-18T01:23:43;-4.70;99.90
18898;DHT22;9581;49.484;8.556;2022-12-18T01:26:14;-4.70;99.90
18898;DHT22;9581;49.484;8.556;2022-12-18T01:28:42;-4.60;99.90
18898;DHT22;9581;49.484;8.556;2022-12-18T01:31:12;-4.50;99.90
18898;DHT22;9581;49.484;8.556;2022-12-18T01:33:39;-4.90;99.90
18898;DHT22;9581;49.484;8.556;2022-12-18T01:36:07;-4.90;99.90
18898;DHT22;9581;49.484;8.556;2022-12-18T01:38:34;-4.70;99.90
18898;DHT22;9581;49.484;8.556;2022-12-18T01:41:01;-4.70;99.90
18898;DHT22;9581;49.484;8.556;2022-12-18T01:43:42;-4.90;99.90
18898;DHT22;9581;49.484;8.556;2022-12-18T01:46:09;-4.90;99.90
18898;DHT22;9581;49.484;8.556;2022-12-18T01:48:37;-5.10;99.90
18898;DHT22;9581;49.484;8.556;2022-12-18T01:51:04;-5.30;99.90
18898;DHT22;9581;49.484;8.556;2022-12-18T01:53:34;-5.00;99.90
18898;DHT22;9581;49.484;8.556;2022-12-18T01:56:00;-5.00;99.90
18898;DHT22;9581;49.484;8.556;2022-12-18T01:58:31;-5.00;99.90
18898;DHT22;9581;49.484;8.556;2022-12-18T02:00:59;-5.10;99.90
18898;DHT22;9581;49.484;8.556;2022-12-18T02:03:26;-5.10;99.90
18898;DHT22;9581;49.484;8.556;2022-12-18T02:05:59;-5.10;99.90
18898;DHT22;9581;49.484;8.556;2022-12-18T02:08:36;-5.00;99.90
18898;DHT22;9581;49.484;8.556;2022-12-18T02:11:07;-4.90;99.90
18898;DHT22;9581;49.484;8.556;2022-12-18T02:13:42;-5.00;99.90
18898;DHT22;9581;49.484;8.556;2022-12-18T02:16:18;-5.40;99.90
18898;DHT22;9581;49.484;8.556;2022-12-18T02:18:50;-5.20;99.90
18898;DHT22;9581;49.484;8.556;2022-12-18T02:21:25;-5.00;99.90
18898;DHT22;9581;49.484;8.556;2022-12-18T02:24:02;-4.90;99.90
18898;DHT22;9581;49.484;8.556;2022-12-18T02:26:36;-4.80;99.90
18898;DHT22;9581;49.484;8.556;2022-12-18T02:29:09;-4.90;99.90
18898;DHT22;9581;49.484;8.556;2022-12-18T02:31:41;-5.10;99.90
18898;DHT22;9581;49.484;8.556;2022-12-18T02:34:10;-5.30;99.90
18898;DHT22;9581;49.484;8.556;2022-12-18T02:36:40;-5.20;99.90
18898;DHT22;9581;49.484;8.556;2022-12-18T02:39:10;-5.60;99.90
18898;DHT22;9581;49.484;8.556;2022-12-18T02:41:39;-5.50;99.90
18898;DHT22;9581;49.484;8.556;2022-12-18T02:44:09;-5.50;99.90
18898;DHT22;9581;49.484;8.556;2022-12-18T02:46:39;-5.30;99.90
18898;DHT22;9581;49.484;8.556;2022-12-18T02:49:25;-5.40;99.90
18898;DHT22;9581;49.484;8.556;2022-12-18T02:51:56;-5.30;99.90
18898;DHT22;9581;49.484;8.556;2022-12-18T02:54:38;-5.50;99.90
18898;DHT22;9581;49.484;8.556;2022-12-18T02:57:15;-5.50;99.90
18898;DHT22;9581;49.484;8.556;2022-12-18T02:59:51;-5.30;99.90
18898;DHT22;9581;49.484;8.556;2022-12-18T03:02:25;-5.30;99.90
18898;DHT22;9581;49.484;8.556;2022-12-18T03:04:57;-5.20;99.90
18898;DHT22;9581;49.484;8.556;2022-12-18T03:07:34;-5.10;99.90
18898;DHT22;9581;49.484;8.556;2022-12-18T03:10:02;-5.30;99.90
18898;DHT22;9581;49.484;8.556;2022-12-18T03:12:34;-5.60;99.90
18898;DHT22;9581;49.484;8.556;2022-12-18T03:15:04;-5.40;99.90
18898;DHT22;9581;49.484;8.556;2022-12-18T03:17:34;-5.30;99.90
18898;DHT22;9581;49.484;8.556;2022-12-18T03:20:05;-5.30;99.90
18898;DHT22;9581;49.484;8.556;2022-12-18T03:22:35;-5.10;99.90
18898;DHT22;9581;49.484;8.556;2022-12-18T03:25:06;-5.20;99.90
18898;DHT22;9581;49.484;8.556;2022-12-18T03:27:37;-5.30;99.90
18898;DHT22;9581;49.484;8.556;2022-12-18T03:30:08;-5.70;99.90
18898;DHT22;9581;49.484;8.556;2022-12-18T03:32:41;-5.50;99.90
18898;DHT22;9581;49.484;8.556;2022-12-18T03:35:11;-5.60;99.90
18898;DHT22;9581;49.484;8.556;2022-12-18T03:37:39;-5.60;99.90
18898;DHT22;9581;49.484;8.556;2022-12-18T03:40:06;-6.10;99.90
18898;DHT22;9581;49.484;8.556;2022-12-18T03:42:41;-6.30;99.90
18898;DHT22;9581;49.484;8.556;2022-12-18T03:45:13;-5.90;99.90
18898;DHT22;9581;49.484;8.556;2022-12-18T03:47:49;-5.50;99.90
18898;DHT22;9581;49.484;8.556;2022-12-18T03:50:20;-5.60;99.90
18898;DHT22;9581;49.484;8.556;2022-12-18T03:52:51;-5.70;99.90
18898;DHT22;9581;49.484;8.556;2022-12-18T03:55:21;-6.10;99.90
18898;DHT22;9581;49.484;8.556;2022-12-18T03:57:51;-6.00;99.90
18898;DHT22;9581;49.484;8.556;2022-12-18T04:00:19;-6.20;99.90
18898;DHT22;9581;49.484;8.556;2022-12-18T04:02:48;-6.30;99.90
18898;DHT22;9581;49.484;8.556;2022-12-18T04:05:17;-5.90;99.90
18898;DHT22;9581;49.484;8.556;2022-12-18T04:07:45;-5.70;99.90
18898;DHT22;9581;49.484;8.556;2022-12-18T04:10:14;-5.70;99.90
18898;DHT22;9581;49.484;8.556;2022-12-18T04:12:42;-5.50;99.90
18898;DHT22;9581;49.484;8.556;2022-12-18T04:15:11;-5.50;99.90
18898;DHT22;9581;49.484;8.556;2022-12-18T04:17:39;-5.80;99.90
18898;DHT22;9581;49.484;8.556;2022-12-18T04:20:10;-5.60;99.90
18898;DHT22;9581;49.484;8.556;2022-12-18T04:22:36;-5.40;99.90
18898;DHT22;9581;49.484;8.556;2022-12-18T04:25:04;-5.40;99.90
18898;DHT22;9581;49.484;8.556;2022-12-18T04:27:31;-5.50;99.90
18898;DHT22;9581;49.484;8.556;2022-12-18T04:29:57;-5.50;99.90
18898;DHT22;9581;49.484;8.556;2022-12-18T04:32:25;-5.40;99.90
18898;DHT22;9581;49.484;8.556;2022-12-18T04:34:52;-5.80;99.90
18898;DHT22;9581;49.484;8.556;2022-12-18T04:37:19;-6.30;99.90
18898;DHT22;9581;49.484;8.556;2022-12-18T04:39:46;-6.00;99.90
18898;DHT22;9581;49.484;8.556;2022-12-18T04:42:12;-5.90;99.90
18898;DHT22;9581;49.484;8.556;2022-12-18T04:44:39;-5.70;99.90
18898;DHT22;9581;49.484;8.556;2022-12-18T04:47:06;-5.80;99.90
18898;DHT22;9581;49.484;8.556;2022-12-18T04:49:34;-5.80;99.90
18898;DHT22;9581;49.484;8.556;2022-12-18T04:52:01;-5.60;99.90
18898;DHT22;9581;49.484;8.556;2022-12-18T04:54:27;-5.60;99.90
18898;DHT22;9581;49.484;8.556;2022-12-18T04:56:54;-5.30;99.90
18898;DHT22;9581;49.484;8.556;2022-12-18T04:59:21;-5.40;99.90
18898;DHT22;9581;49.484;8.556;2022-12-18T05:01:48;-5.50;99.90
18898;DHT22;9581;49.484;8.556;2022-12-18T05:04:14;-5.40;99.90
18898;DHT22;9581;49.484;8.556;2022-12-18T05:06:42;-5.50;99.90
18898;DHT22;9581;49.484;8.556;2022-12-18T05:09:09;-6.10;99.90
18898;DHT22;9581;49.484;8.556;2022-12-18T05:11:36;-5.80;99.90
18898;DHT22;9581;49.484;8.556;2022-12-18T05:14:03;-5.80;99.90
18898;DHT22;9581;49.484;8.556;2022-12-18T05:16:30;-6.00;99.90
18898;DHT22;9581;49.484;8.556;2022-12-18T05:18:57;-6.70;99.90
18898;DHT22;9581;49.484;8.556;2022-12-18T05:21:24;-6.40;99.90
18898;DHT22;9581;49.484;8.556;2022-12-18T05:23:52;-6.60;99.90
18898;DHT22;9581;49.484;8.556;2022-12-18T05:26:19;-6.50;99.90
18898;DHT22;9581;49.484;8.556;2022-12-18T05:28:46;-6.30;99.90
18898;DHT22;9581;49.484;8.556;2022-12-18T05:31:13;-6.10;99.90
18898;DHT22;9581;49.484;8.556;2022-12-18T05:33:40;-5.90;99.90
18898;DHT22;9581;49.484;8.556;2022-12-18T05:36:08;-6.20;99.90
18898;DHT22;9581;49.484;8.556;2022-12-18T05:38:36;-6.10;99.90
18898;DHT22;9581;49.484;8.556;2022-12-18T05:41:05;-6.30;99.90
18898;DHT22;9581;49.484;8.556;2022-12-18T05:43:34;-6.20;99.90
18898;DHT22;9581;49.484;8.556;2022-12-18T05:46:04;-6.40;99.90
18898;DHT22;9581;49.484;8.556;2022-12-18T05:48:31;-5.90;99.90
18898;DHT22;9581;49.484;8.556;2022-12-18T05:51:04;-5.90;99.90
18898;DHT22;9581;49.484;8.556;2022-12-18T05:53:32;-6.10;99.90
18898;DHT22;9581;49.484;8.556;2022-12-18T05:56:00;-6.20;99.90
18898;DHT22;9581;49.484;8.556;2022-12-18T05:58:29;-6.40;99.90
18898;DHT22;9581;49.484;8.556;2022-12-18T06:00:56;-6.20;99.90
18898;DHT22;9581;49.484;8.556;2022-12-18T06:03:23;-6.00;99.90
18898;DHT22;9581;49.484;8.556;2022-12-18T06:05:50;-6.30;99.90
18898;DHT22;9581;49.484;8.556;2022-12-18T06:08:17;-6.00;99.90
18898;DHT22;9581;49.484;8.556;2022-12-18T06:10:50;-6.30;99.90
18898;DHT22;9581;49.484;8.556;2022-12-18T06:13:17;-6.20;99.90
18898;DHT22;9581;49.484;8.556;2022-12-18T06:15:46;-5.90;99.90
18898;DHT22;9581;49.484;8.556;2022-12-18T06:18:12;-5.80;99.90
18898;DHT22;9581;49.484;8.556;2022-12-18T06:20:39;-5.80;99.90
18898;DHT22;9581;49.484;8.556;2022-12-18T06:23:07;-6.10;99.90
18898;DHT22;9581;49.484;8.556;2022-12-18T06:25:37;-6.00;99.90
18898;DHT22;9581;49.484;8.556;2022-12-18T06:28:04;-5.90;99.90
18898;DHT22;9581;49.484;8.556;2022-12-18T06:30:31;-5.90;99.90
18898;DHT22;9581;49.484;8.556;2022-12-18T06:32:59;-6.10;99.90
18898;DHT22;9581;49.484;8.556;2022-12-18T06:35:26;-6.10;99.90
18898;DHT22;9581;49.484;8.556;2022-12-18T06:37:53;-6.20;99.90
18898;DHT22;9581;49.484;8.556;2022-12-18T06:40:20;-5.80;99.90
18898;DHT22;9581;49.484;8.556;2022-12-18T06:42:46;-5.90;99.90
18898;DHT22;9581;49.484;8.556;2022-12-18T06:45:13;-6.20;99.90
18898;DHT22;9581;49.484;8.556;2022-12-18T06:47:40;-6.20;99.90
18898;DHT22;9581;49.484;8.556;2022-12-18T06:50:09;-6.10;99.90
18898;DHT22;9581;49.484;8.556;2022-12-18T06:52:35;-6.00;99.90
18898;DHT22;9581;49.484;8.556;2022-12-18T06:55:05;-5.90;99.90
18898;DHT22;9581;49.484;8.556;2022-12-18T06:57:35;-6.10;99.90
18898;DHT22;9581;49.484;8.556;2022-12-18T07:00:04;-6.00;99.90
18898;DHT22;9581;49.484;8.556;2022-12-18T07:02:32;-5.70;99.90
18898;DHT22;9581;49.484;8.556;2022-12-18T07:04:59;-5.60;99.90
18898;DHT22;9581;49.484;8.556;2022-12-18T07:07:27;-5.40;99.90
18898;DHT22;9581;49.484;8.556;2022-12-18T07:09:53;-5.40;99.90
18898;DHT22;9581;49.484;8.556;2022-12-18T07:12:20;-5.40;99.90
18898;DHT22;9581;49.484;8.556;2022-12-18T07:14:47;-5.60;99.90
18898;DHT22;9581;49.484;8.556;2022-12-18T07:17:14;-5.30;99.90
18898;DHT22;9581;49.484;8.556;2022-12-18T07:19:41;-5.10;99.90
18898;DHT22;9581;49.484;8.556;2022-12-18T07:22:08;-5.30;99.90
18898;DHT22;9581;49.484;8.556;2022-12-18T07:24:36;-5.30;99.90
18898;DHT22;9581;49.484;8.556;2022-12-18T07:27:02;-5.20;99.90
18898;DHT22;9581;49.484;8.556;2022-12-18T07:29:29;-5.20;99.90
18898;DHT22;9581;49.484;8.556;2022-12-18T07:31:56;-5.10;99.90
18898;DHT22;9581;49.484;8.556;2022-12-18T07:34:23;-5.10;99.90
18898;DHT22;9581;49.484;8.556;2022-12-18T07:36:50;-5.20;99.90
18898;DHT22;9581;49.484;8.556;2022-12-18T07:39:16;-5.30;99.90
18898;DHT22;9581;49.484;8.556;2022-12-18T07:41:45;-5.30;99.90
18898;DHT22;9581;49.484;8.556;2022-12-18T07:44:32;-5.30;99.90
18898;DHT22;9581;49.484;8.556;2022-12-18T07:46:59;-5.70;99.90
18898;DHT22;9581;49.484;8.556;2022-12-18T07:49:25;-5.80;99.90
18898;DHT22;9581;49.484;8.556;2022-12-18T07:51:54;-5.50;99.90
18898;DHT22;9581;49.484;8.556;2022-12-18T07:54:21;-5.70;99.90
18898;DHT22;9581;49.484;8.556;2022-12-18T07:56:49;-5.70;99.90
18898;DHT22;9581;49.484;8.556;2022-12-18T07:59:16;-5.50;99.90
18898;DHT22;9581;49.484;8.556;2022-12-18T08:01:44;-5.60;99.90
18898;DHT22;9581;49.484;8.556;2022-12-18T08:04:10;-5.40;99.90
18898;DHT22;9581;49.484;8.556;2022-12-18T08:06:37;-5.70;99.90
18898;DHT22;9581;49.484;8.556;2022-12-18T08:09:04;-5.40;99.90
18898;DHT22;9581;49.484;8.556;2022-12-18T08:11:31;-5.20;99.90
18898;DHT22;9581;49.484;8.556;2022-12-18T08:13:59;-5.20;99.90
18898;DHT22;9581;49.484;8.556;2022-12-18T08:16:26;-5.20;99.90
18898;DHT22;9581;49.484;8.556;2022-12-18T08:18:54;-5.20;99.90
18898;DHT22;9581;49.484;8.556;2022-12-18T08:21:22;-5.70;99.90
18898;DHT22;9581;49.484;8.556;2022-12-18T08:23:50;-5.40;99.90
18898;DHT22;9581;49.484;8.556;2022-12-18T08:26:17;-5.30;99.90
18898;DHT22;9581;49.484;8.556;2022-12-18T08:28:44;-5.20;99.90
18898;DHT22;9581;49.484;8.556;2022-12-18T08:31:12;-5.20;99.90
18898;DHT22;9581;49.484;8.556;2022-12-18T08:33:39;-5.00;99.90
18898;DHT22;9581;49.484;8.556;2022-12-18T08:36:07;-5.00;99.90
18898;DHT22;9581;49.484;8.556;2022-12-18T08:38:34;-5.30;99.90
18898;DHT22;9581;49.484;8.556;2022-12-18T08:41:03;-5.30;99.90
18898;DHT22;9581;49.484;8.556;2022-12-18T08:43:30;-5.40;99.90
18898;DHT22;9581;49.484;8.556;2022-12-18T08:46:16;-5.10;99.90
18898;DHT22;9581;49.484;8.556;2022-12-18T08:48:43;-5.30;99.90
18898;DHT22;9581;49.484;8.556;2022-12-18T08:51:10;-5.30;99.90
18898;DHT22;9581;49.484;8.556;2022-12-18T08:53:37;-5.50;99.90
18898;DHT22;9581;49.484;8.556;2022-12-18T08:56:05;-5.40;99.90
18898;DHT22;9581;49.484;8.556;2022-12-18T08:58:32;-5.40;99.90
18898;DHT22;9581;49.484;8.556;2022-12-18T09:01:00;-5.00;99.90
18898;DHT22;9581;49.484;8.556;2022-12-18T09:03:28;-5.20;99.90
18898;DHT22;9581;49.484;8.556;2022-12-18T09:05:55;-5.30;99.90
18898;DHT22;9581;49.484;8.556;2022-12-18T09:08:22;-5.60;99.90
18898;DHT22;9581;49.484;8.556;2022-12-18T09:10:50;-5.50;99.90
18898;DHT22;9581;49.484;8.556;2022-12-18T09:13:18;-5.40;99.90
18898;DHT22;9581;49.484;8.556;2022-12-18T09:15:46;-5.20;99.90
18898;DHT22;9581;49.484;8.556;2022-12-18T09:18:14;-4.80;99.90
18898;DHT22;9581;49.484;8.556;2022-12-18T09:20:43;-4.70;99.90
18898;DHT22;9581;49.484;8.556;2022-12-18T09:23:10;-4.80;99.90
18898;DHT22;9581;49.484;8.556;2022-12-18T09:25:37;-4.60;99.90
18898;DHT22;9581;49.484;8.556;2022-12-18T09:28:05;-4.50;99.90
18898;DHT22;9581;49.484;8.556;2022-12-18T09:30:32;-4.60;99.90
18898;DHT22;9581;49.484;8.556;2022-12-18T09:32:59;-4.50;99.90
18898;DHT22;9581;49.484;8.556;2022-12-18T09:35:27;-4.60;99.90
18898;DHT22;9581;49.484;8.556;2022-12-18T09:37:55;-4.60;99.90
18898;DHT22;9581;49.484;8.556;2022-12-18T09:40:24;-4.50;99.90
18898;DHT22;9581;49.484;8.556;2022-12-18T09:42:55;-4.00;99.90
18898;DHT22;9581;49.484;8.556;2022-12-18T09:45:24;-3.80;99.90
18898;DHT22;9581;49.484;8.556;2022-12-18T09:47:52;-3.40;99.90
18898;DHT22;9581;49.484;8.556;2022-12-18T09:50:24;-2.80;99.90
18898;DHT22;9581;49.484;8.556;2022-12-18T09:52:56;-2.80;99.90
18898;DHT22;9581;49.484;8.556;2022-12-18T09:55:28;-2.00;99.90
18898;DHT22;9581;49.484;8.556;2022-12-18T09:57:57;-0.90;99.90
18898;DHT22;9581;49.484;8.556;2022-12-18T10:00:25;0.20;99.90
18898;DHT22;9581;49.484;8.556;2022-12-18T10:02:55;0.30;99.90
18898;DHT22;9581;49.484;8.556;2022-12-18T10:05:33;0.90;99.90
18898;DHT22;9581;49.484;8.556;2022-12-18T10:08:07;1.30;99.90
18898;DHT22;9581;49.484;8.556;2022-12-18T10:10:40;1.50;99.90
18898;DHT22;9581;49.484;8.556;2022-12-18T10:13:15;2.50;99.90
18898;DHT22;9581;49.484;8.556;2022-12-18T10:15:53;1.50;99.90
18898;DHT22;9581;49.484;8.556;2022-12-18T10:18:33;1.40;99.90
18898;DHT22;9581;49.484;8.556;2022-12-18T10:21:05;2.60;99.90
18898;DHT22;9581;49.484;8.556;2022-12-18T10:23:41;2.90;99.90
18898;DHT22;9581;49.484;8.556;2022-12-18T10:26:11;3.10;99.90
18898;DHT22;9581;49.484;8.556;2022-12-18T10:28:40;2.20;99.90
18898;DHT22;9581;49.484;8.556;2022-12-18T10:31:13;2.10;99.90
18898;DHT22;9581;49.484;8.556;2022-12-18T10:33:41;2.40;99.90
18898;DHT22;9581;49.484;8.556;2022-12-18T10:36:08;2.40;99.90
18898;DHT22;9581;49.484;8.556;2022-12-18T10:38:36;1.80;99.90
18898;DHT22;9581;49.484;8.556;2022-12-18T10:41:05;0.20;99.90
18898;DHT22;9581;49.484;8.556;2022-12-18T10:43:36;-0.20;99.90
18898;DHT22;9581;49.484;8.556;2022-12-18T10:46:14;-0.90;99.90
18898;DHT22;9581;49.484;8.556;2022-12-18T10:48:53;-1.30;99.90
18898;DHT22;9581;49.484;8.556;2022-12-18T10:51:25;-1.40;99.90
18898;DHT22;9581;49.484;8.556;2022-12-18T10:53:56;-1.40;99.90
18898;DHT22;9581;49.484;8.556;2022-12-18T10:56:26;-1.40;99.90
18898;DHT22;9581;49.484;8.556;2022-12-18T10:58:59;-1.30;99.90
18898;DHT22;9581;49.484;8.556;2022-12-18T11:01:27;-1.50;99.90
18898;DHT22;9581;49.484;8.556;2022-12-18T11:04:04;-1.10;99.90
18898;DHT22;9581;49.484;8.556;2022-12-18T11:06:53;-1.10;99.90
18898;DHT22;9581;49.484;8.556;2022-12-18T11:09:23;-1.20;99.90
18898;DHT22;9581;49.484;8.556;2022-12-18T11:11:52;-1.20;99.90
18898;DHT22;9581;49.484;8.556;2022-12-18T11:14:22;-0.80;99.90
18898;DHT22;9581;49.484;8.556;2022-12-18T11:16:51;-1.00;99.90
18898;DHT22;9581;49.484;8.556;2022-12-18T11:19:30;-1.10;99.90
18898;DHT22;9581;49.484;8.556;2022-12-18T11:21:58;-0.70;99.90
18898;DHT22;9581;49.484;8.556;2022-12-18T11:24:30;-0.60;99.90
18898;DHT22;9581;49.484;8.556;2022-12-18T11:26:59;-0.80;99.90
18898;DHT22;9581;49.484;8.556;2022-12-18T11:29:32;-0.70;99.90
18898;DHT22;9581;49.484;8.556;2022-12-18T11:32:33;-0.60;99.90
18898;DHT22;9581;49.484;8.556;2022-12-18T11:35:07;-0.70;99.90
18898;DHT22;9581;49.484;8.556;2022-12-18T11:37:37;-0.60;99.90
18898;DHT22;9581;49.484;8.556;2022-12-18T11:40:13;-0.80;99.90
18898;DHT22;9581;49.484;8.556;2022-12-18T11:42:45;-0.70;99.90
18898;DHT22;9581;49.484;8.556;2022-12-18T11:45:34;-0.60;99.90
18898;DHT22;9581;49.484;8.556;2022-12-18T11:48:04;-0.70;99.90
18898;DHT22;9581;49.484;8.556;2022-12-18T11:50:43;-0.50;99.90
18898;DHT22;9581;49.484;8.556;2022-12-18T11:53:12;-0.90;99.90
18898;DHT22;9581;49.484;8.556;2022-12-18T11:55:45;-0.70;99.90
18898;DHT22;9581;49.484;8.556;2022-12-18T11:58:22;-0.50;99.90
18898;DHT22;9581;49.484;8.556;2022-12-18T12:00:56;-0.60;99.90
18898;DHT22;9581;49.484;8.556;2022-12-18T12:03:43;-0.90;99.90
18898;DHT22;9581;49.484;8.556;2022-12-18T12:06:18;-0.60;99.90
18898;DHT22;9581;49.484;8.556;2022-12-18T12:08:59;-0.50;99.90
18898;DHT22;9581;49.484;8.556;2022-12-18T12:11:36;-0.70;99.90
18898;DHT22;9581;49.484;8.556;2022-12-18T12:14:21;-0.70;99.90
18898;DHT22;9581;49.484;8.556;2022-12-18T12:16:54;-0.70;99.90
18898;DHT22;9581;49.484;8.556;2022-12-18T12:19:35;-0.70;99.90
18898;DHT22;9581;49.484;8.556;2022-12-18T12:22:10;-0.70;99.90
18898;DHT22;9581;49.484;8.556;2022-12-18T12:24:49;-0.60;99.90
18898;DHT22;9581;49.484;8.556;2022-12-18T12:27:26;-0.60;99.90
18898;DHT22;9581;49.484;8.556;2022-12-18T12:30:03;-0.50;99.90
18898;DHT22;9581;49.484;8.556;2022-12-18T12:32:50;-0.50;99.90
18898;DHT22;9581;49.484;8.556;2022-12-18T12:35:32;-0.70;99.90
18898;DHT22;9581;49.484;8.556;2022-12-18T12:38:08;-0.80;99.90
18898;DHT22;9581;49.484;8.556;2022-12-18T12:40:39;-0.70;99.90
18898;DHT22;9581;49.484;8.556;2022-12-18T12:43:20;-0.70;99.90
18898;DHT22;9581;49.484;8.556;2022-12-18T12:45:49;-0.70;99.90
18898;DHT22;9581;49.484;8.556;2022-12-18T12:48:23;-0.70;99.90
18898;DHT22;9581;49.484;8.556;2022-12-18T12:50:55;-0.80;99.90
18898;DHT22;9581;49.484;8.556;2022-12-18T12:53:26;-0.90;99.90
18898;DHT22;9581;49.484;8.556;2022-12-18T12:55:54;-1.00;99.90
18898;DHT22;9581;49.484;8.556;2022-12-18T12:58:31;-1.00;99.90
18898;DHT22;9581;49.484;8.556;2022-12-18T13:01:08;-0.80;99.90
18898;DHT22;9581;49.484;8.556;2022-12-18T13:03:52;-0.80;99.90
18898;DHT22;9581;49.484;8.556;2022-12-18T13:06:32;-0.70;99.90
18898;DHT22;9581;49.484;8.556;2022-12-18T13:09:02;-0.80;99.90
18898;DHT22;9581;49.484;8.556;2022-12-18T13:11:39;-1.00;99.90
18898;DHT22;9581;49.484;8.556;2022-12-18T13:14:29;-1.20;99.90
18898;DHT22;9581;49.484;8.556;2022-12-18T13:20:06;-1.30;99.90
18898;DHT22;9581;49.484;8.556;2022-12-18T13:22:35;-1.20;99.90
18898;DHT22;9581;49.484;8.556;2022-12-18T13:28:01;-1.20;99.90
18898;DHT22;9581;49.484;8.556;2022-12-18T13:30:46;-1.00;99.90
18898;DHT22;9581;49.484;8.556;2022-12-18T13:33:38;-0.90;99.90
18898;DHT22;9581;49.484;8.556;2022-12-18T13:36:13;-0.80;99.90
18898;DHT22;9581;49.484;8.556;2022-12-18T13:38:42;-0.90;99.90
18898;DHT22;9581;49.484;8.556;2022-12-18T13:41:23;-1.00;99.90
18898;DHT22;9581;49.484;8.556;2022-12-18T13:43:51;-1.00;99.90
18898;DHT22;9581;49.484;8.556;2022-12-18T13:46:26;-1.10;99.90
18898;DHT22;9581;49.484;8.556;2022-12-18T13:48:59;-1.00;99.90
18898;DHT22;9581;49.484;8.556;2022-12-18T13:51:28;-1.00;99.90
18898;DHT22;9581;49.484;8.556;2022-12-18T13:53:58;-1.10;99.90
18898;DHT22;9581;49.484;8.556;2022-12-18T13:56:27;-1.10;99.90
18898;DHT22;9581;49.484;8.556;2022-12-18T13:59:13;-1.10;99.90
18898;DHT22;9581;49.484;8.556;2022-12-18T14:01:47;-1.10;99.90
18898;DHT22;9581;49.484;8.556;2022-12-18T14:04:23;-1.30;99.90
18898;DHT22;9581;49.484;8.556;2022-12-18T14:06:52;-1.40;99.90
18898;DHT22;9581;49.484;8.556;2022-12-18T14:09:23;-1.40;99.90
18898;DHT22;9581;49.484;8.556;2022-12-18T14:11:51;-1.20;99.90
18898;DHT22;9581;49.484;8.556;2022-12-18T14:14:42;-1.40;99.90
18898;DHT22;9581;49.484;8.556;2022-12-18T14:17:11;-1.20;99.90
18898;DHT22;9581;49.484;8.556;2022-12-18T14:19:42;-1.10;99.90
18898;DHT22;9581;49.484;8.556;2022-12-18T14:22:15;-1.20;99.90
18898;DHT22;9581;49.484;8.556;2022-12-18T14:24:42;-1.30;99.90
18898;DHT22;9581;49.484;8.556;2022-12-18T14:27:22;-1.40;99.90
18898;DHT22;9581;49.484;8.556;2022-12-18T14:29:49;-1.60;99.90
18898;DHT22;9581;49.484;8.556;2022-12-18T14:32:19;-1.70;99.90
18898;DHT22;9581;49.484;8.556;2022-12-18T14:34:48;-1.90;99.90
18898;DHT22;9581;49.484;8.556;2022-12-18T14:37:17;-1.80;99.90
18898;DHT22;9581;49.484;8.556;2022-12-18T14:39:55;-1.90;99.90
18898;DHT22;9581;49.484;8.556;2022-12-18T14:42:22;-1.70;99.90
18898;DHT22;9581;49.484;8.556;2022-12-18T14:48:00;-1.70;99.90
18898;DHT22;9581;49.484;8.556;2022-12-18T14:50:27;-1.90;99.90
18898;DHT22;9581;49.484;8.556;2022-12-18T14:52:54;-1.70;99.90
18898;DHT22;9581;49.484;8.556;2022-12-18T14:55:21;-1.60;99.90
18898;DHT22;9581;49.484;8.556;2022-12-18T14:57:51;-1.60;99.90
18898;DHT22;9581;49.484;8.556;2022-12-18T15:00:20;-1.70;99.90
18898;DHT22;9581;49.484;8.556;2022-12-18T15:02:50;-1.80;99.90
18898;DHT22;9581;49.484;8.556;2022-12-18T15:05:24;-1.80;99.90
18898;DHT22;9581;49.484;8.556;2022-12-18T15:07:53;-2.00;99.90
18898;DHT22;9581;49.484;8.556;2022-12-18T15:10:21;-2.30;99.90
18898;DHT22;9581;49.484;8.556;2022-12-18T15:12:49;-2.30;99.90
18898;DHT22;9581;49.484;8.556;2022-12-18T15:15:45;-2.00;99.90
18898;DHT22;9581;49.484;8.556;2022-12-18T15:18:14;-2.10;99.90
18898;DHT22;9581;49.484;8.556;2022-12-18T15:20:45;-2.10;99.90
18898;DHT22;9581;49.484;8.556;2022-12-18T15:23:18;-2.10;99.90
18898;DHT22;9581;49.484;8.556;2022-12-18T15:25:46;-2.10;99.90
18898;DHT22;9581;49.484;8.556;2022-12-18T15:28:19;-2.10;99.90
18898;DHT22;9581;49.484;8.556;2022-12-18T15:31:21;-2.10;99.90
18898;DHT22;9581;49.484;8.556;2022-12-18T15:34:05;-2.20;99.90
18898;DHT22;9581;49.484;8.556;2022-12-18T15:36:37;-2.10;99.90
18898;DHT22;9581;49.484;8.556;2022-12-18T15:39:04;-2.20;99.90
18898;DHT22;9581;49.484;8.556;2022-12-18T15:41:32;-2.20;99.90
18898;DHT22;9581;49.484;8.556;2022-12-18T15:43:59;-2.30;99.90
18898;DHT22;9581;49.484;8.556;2022-12-18T15:46:25;-2.20;99.90
18898;DHT22;9581;49.484;8.556;2022-12-18T15:48:54;-2.30;99.90
18898;DHT22;9581;49.484;8.556;2022-12-18T15:51:24;-2.40;99.90
18898;DHT22;9581;49.484;8.556;2022-12-18T15:53:55;-2.40;99.90
18898;DHT22;9581;49.484;8.556;2022-12-18T15:56:22;-2.30;99.90
18898;DHT22;9581;49.484;8.556;2022-12-18T15:59:10;-2.60;99.90
18898;DHT22;9581;49.484;8.556;2022-12-18T16:01:39;-2.70;99.90
18898;DHT22;9581;49.484;8.556;2022-12-18T16:04:06;-2.60;99.90
18898;DHT22;9581;49.484;8.556;2022-12-18T16:06:33;-2.40;99.90
18898;DHT22;9581;49.484;8.556;2022-12-18T16:09:01;-2.40;99.90
18898;DHT22;9581;49.484;8.556;2022-12-18T16:11:30;-2.40;99.90
18898;DHT22;9581;49.484;8.556;2022-12-18T16:14:14;-2.40;99.90
18898;DHT22;9581;49.484;8.556;2022-12-18T16:16:42;-2.60;99.90
18898;DHT22;9581;49.484;8.556;2022-12-18T16:19:08;-2.60;99.90